Time,TemperatureF,DewpointF,PressureIn,WindDirection,WindDirectionDegrees,WindSpeedMPH,WindSpeedGustMPH,Humidity,HourlyPrecipIn,Conditions,Clouds,dailyrainin,SoftwareType,DateUTC
2013-06-01 00:00:00,75.5,66.0,29.97,SSW,196,0.0,-999.0,73,-99.99,,,0.00,weatherlink.com 1.10,2013-06-01 05:00:00,
2013-06-01 00:15:00,74.1,66.0,29.98,SSW,196,0.0,-999.0,77,-99.99,,,0.00,weatherlink.com 1.10,2013-06-01 05:15:00,
2013-06-01 00:30:00,72.7,66.0,29.98,SSW,196,0.0,-999.0,80,-99.99,,,0.00,weatherlink.com 1.10,2013-06-01 05:30:00,
2013-06-01 00:45:00,72.0,66.0,29.98,SSW,196,0.0,-999.0,81,-99.99,,,0.00,weatherlink.com 1.10,2013-06-01 05:45:00,
2013-06-01 01:01:00,71.4,66.0,29.99,SSW,196,0.0,-999.0,83,-99.99,,,0.00,weatherlink.com 1.10,2013-06-01 06:01:00,
2013-06-01 01:15:00,70.8,66.0,29.98,SSW,196,0.0,-999.0,84,-99.99,,,0.00,weatherlink.com 1.10,2013-06-01 06:15:00,
2013-06-01 01:30:00,70.6,66.0,29.98,SSW,196,0.0,-999.0,85,-99.99,,,0.00,weatherlink.com 1.10,2013-06-01 06:30:00,
2013-06-01 01:45:00,70.8,67.0,29.98,SSW,196,0.0,-999.0,86,-99.99,,,0.00,weatherlink.com 1.10,2013-06-01 06:45:00,
2013-06-01 02:00:00,71.1,66.0,29.98,SSW,196,0.0,-999.0,85,-99.99,,,0.00,weatherlink.com 1.10,2013-06-01 07:00:00,
2013-06-01 02:15:00,70.9,67.0,29.98,SSW,196,0.0,-999.0,86,-99.99,,,0.00,weatherlink.com 1.10,2013-06-01 07:15:00,
2013-06-01 02:30:00,70.6,66.0,29.98,SSW,196,0.0,-999.0,85,-99.99,,,0.00,weatherlink.com 1.10,2013-06-01 07:30:00,
2013-06-01 02:45:00,70.9,67.0,29.97,SSW,196,0.0,-999.0,86,-99.99,,,0.00,weatherlink.com 1.10,2013-06-01 07:45:00,
2013-06-01 03:00:00,70.8,67.0,29.98,SSW,196,0.0,-999.0,86,-99.99,,,0.00,weatherlink.com 1.10,2013-06-01 08:00:00,
2013-06-01 03:15:00,70.8,66.0,29.97,SSW,196,0.0,-999.0,85,-99.99,,,0.00,weatherlink.com 1.10,2013-06-01 08:15:00,
2013-06-01 03:30:00,71.3,66.0,29.97,SSW,196,0.0,-999.0,83,-99.99,,,0.00,weatherlink.com 1.10,2013-06-01 08:30:00,
2013-06-01 03:46:00,71.2,66.0,29.97,SSW,196,0.0,-999.0,84,-99.99,,,0.00,weatherlink.com 1.10,2013-06-01 08:46:00,
2013-06-01 04:00:00,70.8,66.0,29.96,SSW,196,0.0,-999.0,84,-99.99,,,0.00,weatherlink.com 1.10,2013-06-01 09:00:00,
2013-06-01 04:15:00,70.2,66.0,29.96,SSW,196,0.0,-999.0,85,-99.99,,,0.00,weatherlink.com 1.10,2013-06-01 09:15:00,
2013-06-01 04:30:00,69.9,66.0,29.96,SSW,196,0.0,-999.0,86,-99.99,,,0.00,weatherlink.com 1.10,2013-06-01 09:30:00,
2013-06-01 04:45:00,69.7,65.0,29.96,SSW,196,0.0,-999.0,85,-99.99,,,0.00,weatherlink.com 1.10,2013-06-01 09:45:00,
2013-06-01 05:00:00,70.1,65.0,29.95,SSW,196,0.0,-999.0,84,-99.99,,,0.00,weatherlink.com 1.10,2013-06-01 10:00:00,
2013-06-01 05:15:00,70.6,65.0,29.96,SSW,196,0.0,-999.0,83,-99.99,,,0.00,weatherlink.com 1.10,2013-06-01 10:15:00,
2013-06-01 05:30:00,71.1,65.0,29.96,SSW,192,0.0,-999.0,81,-99.99,,,0.00,weatherlink.com 1.10,2013-06-01 10:30:00,
2013-06-01 05:45:00,70.5,65.0,29.96,SSW,192,0.0,-999.0,83,-99.99,,,0.00,weatherlink.com 1.10,2013-06-01 10:45:00,
2013-06-01 06:00:00,70.0,65.0,29.96,SSW,192,0.0,-999.0,84,-99.99,,,0.00,weatherlink.com 1.10,2013-06-01 11:00:00,
2013-06-01 06:15:00,69.8,65.0,29.96,SSW,192,0.0,-999.0,84,-99.99,,,0.00,weatherlink.com 1.10,2013-06-01 11:15:00,
2013-06-01 06:31:00,70.2,66.0,29.97,SSW,192,0.0,-999.0,85,-99.99,,,0.00,weatherlink.com 1.10,2013-06-01 11:31:00,
2013-06-01 06:45:00,71.3,66.0,29.97,SSW,192,0.0,-999.0,83,-99.99,,,0.00,weatherlink.com 1.10,2013-06-01 11:45:00,
2013-06-01 07:00:00,72.6,67.0,29.98,SSW,207,0.0,-999.0,81,-99.99,,,0.00,weatherlink.com 1.10,2013-06-01 12:00:00,
2013-06-01 07:15:00,73.3,67.0,29.97,SW,225,0.0,-999.0,80,-99.99,,,0.00,weatherlink.com 1.10,2013-06-01 12:15:00,
2013-06-01 07:30:00,74.0,68.0,29.98,SW,219,0.0,-999.0,80,-99.99,,,0.00,weatherlink.com 1.10,2013-06-01 12:30:00,
2013-06-01 07:45:00,74.2,67.0,29.98,SW,217,0.0,-999.0,79,-99.99,,,0.00,weatherlink.com 1.10,2013-06-01 12:45:00,
2013-06-01 08:00:00,75.5,69.0,29.98,South,182,0.0,-999.0,79,-99.99,,,0.00,weatherlink.com 1.10,2013-06-01 13:00:00,
2013-06-01 08:15:00,76.1,69.0,29.98,SSW,209,2.0,-999.0,78,-99.99,,,0.00,weatherlink.com 1.10,2013-06-01 13:15:00,
2013-06-01 08:30:00,76.5,69.0,29.98,SSE,165,0.0,-999.0,78,-99.99,,,0.00,weatherlink.com 1.10,2013-06-01 13:30:00,
2013-06-01 08:45:00,77.5,69.0,29.98,SSE,148,7.0,-999.0,76,-99.99,,,0.00,weatherlink.com 1.10,2013-06-01 13:45:00,
2013-06-01 09:00:00,77.9,70.0,29.96,SE,125,1.0,-999.0,76,-99.99,,,0.00,weatherlink.com 1.10,2013-06-01 14:00:00,
2013-06-01 09:16:00,79.0,70.0,29.96,ESE,117,0.0,-999.0,75,-99.99,,,0.00,weatherlink.com 1.10,2013-06-01 14:16:00,
2013-06-01 09:30:00,79.7,70.0,29.96,SSE,160,3.0,-999.0,73,-99.99,,,0.00,weatherlink.com 1.10,2013-06-01 14:30:00,
2013-06-01 09:45:00,79.7,70.0,29.96,South,186,7.0,-999.0,72,-99.99,,,0.00,weatherlink.com 1.10,2013-06-01 14:45:00,
2013-06-01 10:00:00,80.0,70.0,29.96,SSE,153,7.0,-999.0,72,-99.99,,,0.00,weatherlink.com 1.10,2013-06-01 15:00:00,
2013-06-01 10:15:00,80.9,71.0,29.96,SSE,164,2.0,-999.0,71,-99.99,,,0.00,weatherlink.com 1.10,2013-06-01 15:15:00,
2013-06-01 10:30:00,80.7,71.0,29.96,SSW,199,0.0,-999.0,71,-99.99,,,0.00,weatherlink.com 1.10,2013-06-01 15:30:00,
2013-06-01 10:45:00,81.6,71.0,29.96,SSW,200,7.0,-999.0,70,-99.99,,,0.00,weatherlink.com 1.10,2013-06-01 15:45:00,
2013-06-01 11:00:00,81.9,71.0,29.96,SSW,205,3.0,-999.0,69,-99.99,,,0.00,weatherlink.com 1.10,2013-06-01 16:00:00,
2013-06-01 11:15:00,81.9,71.0,29.96,SSW,210,0.0,-999.0,69,-99.99,,,0.00,weatherlink.com 1.10,2013-06-01 16:15:00,
2013-06-01 11:30:00,82.3,71.0,29.96,SSW,198,6.0,-999.0,69,-99.99,,,0.00,weatherlink.com 1.10,2013-06-01 16:30:00,
2013-06-01 11:45:00,82.8,71.0,29.95,South,174,3.0,-999.0,67,-99.99,,,0.00,weatherlink.com 1.10,2013-06-01 16:45:00,
2013-06-01 12:01:00,83.5,71.0,29.95,SSW,205,10.0,-999.0,66,-99.99,,,0.00,weatherlink.com 1.10,2013-06-01 17:01:00,
2013-06-01 12:15:00,83.5,71.0,29.95,SW,219,11.0,-999.0,66,-99.99,,,0.00,weatherlink.com 1.10,2013-06-01 17:15:00,
2013-06-01 12:30:00,82.9,70.0,29.95,SE,136,1.0,-999.0,66,-99.99,,,0.00,weatherlink.com 1.10,2013-06-01 17:30:00,
2013-06-01 12:45:00,81.5,72.0,29.95,SW,235,6.0,-999.0,73,-99.99,,,0.00,weatherlink.com 1.10,2013-06-01 17:45:00,
2013-06-01 13:00:00,82.0,73.0,29.95,SW,229,1.0,-999.0,74,-99.99,,,0.00,weatherlink.com 1.10,2013-06-01 18:00:00,
2013-06-01 13:15:00,84.4,73.0,29.94,SW,224,9.0,-999.0,68,-99.99,,,0.00,weatherlink.com 1.10,2013-06-01 18:15:00,
2013-06-01 13:30:00,82.7,71.0,29.94,SE,132,7.0,-999.0,68,-99.99,,,0.00,weatherlink.com 1.10,2013-06-01 18:30:00,
2013-06-01 13:45:00,82.9,72.0,29.93,SW,235,5.0,-999.0,70,-99.99,,,0.00,weatherlink.com 1.10,2013-06-01 18:45:00,
2013-06-01 14:00:00,82.5,72.0,29.93,SSW,194,6.0,-999.0,70,-99.99,,,0.00,weatherlink.com 1.10,2013-06-01 19:00:00,
2013-06-01 14:15:00,82.0,72.0,29.93,SSW,192,2.0,-999.0,71,-99.99,,,0.00,weatherlink.com 1.10,2013-06-01 19:15:00,
2013-06-01 14:30:00,82.4,72.0,29.92,South,188,5.0,-999.0,71,-99.99,,,0.00,weatherlink.com 1.10,2013-06-01 19:30:00,
2013-06-01 14:46:00,83.2,72.0,29.92,SSW,197,5.0,-999.0,70,-99.99,,,0.00,weatherlink.com 1.10,2013-06-01 19:46:00,
2013-06-01 15:00:00,83.1,72.0,29.92,SSW,209,5.0,-999.0,69,-99.99,,,0.00,weatherlink.com 1.10,2013-06-01 20:00:00,
2013-06-01 15:15:00,82.4,72.0,29.91,WSW,237,5.0,-999.0,71,-99.99,,,0.00,weatherlink.com 1.10,2013-06-01 20:15:00,
2013-06-01 15:30:00,82.8,72.0,29.90,South,177,7.0,-999.0,70,-99.99,,,0.00,weatherlink.com 1.10,2013-06-01 20:30:00,
2013-06-01 15:45:00,84.0,72.0,29.90,South,175,0.0,-999.0,67,-99.99,,,0.00,weatherlink.com 1.10,2013-06-01 20:45:00,
2013-06-01 16:00:00,84.2,72.0,29.89,West,281,1.0,-999.0,66,-99.99,,,0.00,weatherlink.com 1.10,2013-06-01 21:00:00,
2013-06-01 16:15:00,83.9,72.0,29.88,South,191,3.0,-999.0,68,-99.99,,,0.00,weatherlink.com 1.10,2013-06-01 21:15:00,
2013-06-01 16:30:00,84.9,72.0,29.88,South,178,1.0,-999.0,65,-99.99,,,0.00,weatherlink.com 1.10,2013-06-01 21:30:00,
2013-06-01 16:45:00,84.2,72.0,29.88,SW,229,7.0,-999.0,66,-99.99,,,0.00,weatherlink.com 1.10,2013-06-01 21:45:00,
2013-06-01 17:00:00,84.3,72.0,29.88,SSW,211,4.0,-999.0,67,-99.99,,,0.00,weatherlink.com 1.10,2013-06-01 22:00:00,
2013-06-01 17:15:00,85.3,72.0,29.88,SW,227,7.0,-999.0,65,-99.99,,,0.00,weatherlink.com 1.10,2013-06-01 22:15:00,
2013-06-01 17:31:00,83.4,72.0,29.89,SSW,196,5.0,-999.0,68,-99.99,,,0.00,weatherlink.com 1.10,2013-06-01 22:31:00,
2013-06-01 17:45:00,83.7,72.0,29.88,SSW,202,1.0,-999.0,68,-99.99,,,0.00,weatherlink.com 1.10,2013-06-01 22:45:00,
2013-06-01 18:00:00,83.6,72.0,29.88,SSW,195,1.0,-999.0,69,-99.99,,,0.00,weatherlink.com 1.10,2013-06-01 23:00:00,
2013-06-01 18:15:00,83.3,72.0,29.89,South,184,4.0,-999.0,69,-99.99,,,0.00,weatherlink.com 1.10,2013-06-01 23:15:00,
2013-06-01 18:30:00,82.2,72.0,29.89,South,180,4.0,-999.0,72,-99.99,,,0.00,weatherlink.com 1.10,2013-06-01 23:30:00,
2013-06-01 18:45:00,79.8,73.0,29.88,SSE,161,0.0,-999.0,79,-99.99,,,0.03,weatherlink.com 1.10,2013-06-01 23:45:00,
2013-06-01 19:00:00,74.5,69.0,29.91,WNW,292,0.0,-999.0,83,-99.99,,,0.17,weatherlink.com 1.10,2013-06-02 00:00:00,
2013-06-01 19:15:00,70.8,68.0,29.91,South,169,1.0,-999.0,92,-99.99,,,0.77,weatherlink.com 1.10,2013-06-02 00:15:00,
2013-06-01 19:30:00,70.4,68.0,29.92,South,173,4.0,-999.0,93,-99.99,,,0.81,weatherlink.com 1.10,2013-06-02 00:30:00,
2013-06-01 19:45:00,70.1,68.0,29.92,SE,130,0.0,-999.0,93,-99.99,,,0.81,weatherlink.com 1.10,2013-06-02 00:45:00,
2013-06-01 20:00:00,69.9,68.0,29.92,ESE,119,0.0,-999.0,94,-99.99,,,0.81,weatherlink.com 1.10,2013-06-02 01:00:00,
2013-06-01 20:16:00,69.8,68.0,29.93,South,191,0.0,-999.0,94,-99.99,,,0.81,weatherlink.com 1.10,2013-06-02 01:16:00,
2013-06-01 20:30:00,69.7,68.0,29.92,SE,142,1.0,-999.0,94,-99.99,,,0.81,weatherlink.com 1.10,2013-06-02 01:30:00,
2013-06-01 20:45:00,69.7,68.0,29.92,SSE,151,0.0,-999.0,93,-99.99,,,0.81,weatherlink.com 1.10,2013-06-02 01:45:00,
2013-06-01 21:00:00,69.8,68.0,29.91,SSE,155,0.0,-999.0,94,-99.99,,,0.81,weatherlink.com 1.10,2013-06-02 02:00:00,
2013-06-01 21:15:00,70.2,69.0,29.90,SSE,165,0.0,-999.0,94,-99.99,,,0.81,weatherlink.com 1.10,2013-06-02 02:15:00,
2013-06-01 21:30:00,70.4,69.0,29.91,NNE,16,0.0,-999.0,94,-99.99,,,0.81,weatherlink.com 1.10,2013-06-02 02:30:00,
2013-06-01 21:45:00,70.2,69.0,29.89,ENE,78,0.0,-999.0,94,-99.99,,,0.81,weatherlink.com 1.10,2013-06-02 02:45:00,
2013-06-01 22:00:00,70.3,69.0,29.89,NE,42,0.0,-999.0,95,-99.99,,,0.81,weatherlink.com 1.10,2013-06-02 03:00:00,
2013-06-01 22:15:00,70.3,69.0,29.90,ESE,102,0.0,-999.0,95,-99.99,,,0.81,weatherlink.com 1.10,2013-06-02 03:15:00,
2013-06-01 22:30:00,70.4,69.0,29.90,ESE,102,0.0,-999.0,95,-99.99,,,0.81,weatherlink.com 1.10,2013-06-02 03:30:00,
2013-06-01 22:45:00,70.5,69.0,29.91,ESE,102,0.0,-999.0,95,-99.99,,,0.81,weatherlink.com 1.10,2013-06-02 03:45:00,
2013-06-01 23:01:00,70.4,69.0,29.90,ESE,102,0.0,-999.0,95,-99.99,,,0.81,weatherlink.com 1.10,2013-06-02 04:01:00,
2013-06-01 23:15:00,70.3,69.0,29.90,ESE,102,0.0,-999.0,95,-99.99,,,0.81,weatherlink.com 1.10,2013-06-02 04:15:00,
2013-06-01 23:30:00,70.2,69.0,29.91,ESE,102,0.0,-999.0,95,-99.99,,,0.81,weatherlink.com 1.10,2013-06-02 04:30:00,
2013-06-01 23:45:00,70.5,69.0,29.91,SSE,167,1.0,-999.0,95,-99.99,,,0.81,weatherlink.com 1.10,2013-06-02 04:45:00,